sensor_id;sensor_type;location;lat;lon;timestamp;pressure;altitude;pressure_sealevel;temperature;humidity
23118;BME280;11728;50.624;6.014;2023-04-26T00:04:36;98561.50;;;4.69;71.57
23118;BME280;11728;50.624;6.014;2023-04-26T00:09:56;98552.75;;;4.54;72.79
23118;BME280;11728;50.624;6.014;2023-04-26T00:15:17;98554.44;;;4.45;73.14
23118;BME280;11728;50.624;6.014;2023-04-26T00:20:38;98549.13;;;4.30;74.19
23118;BME280;11728;50.624;6.014;2023-04-26T00:25:59;98547.31;;;4.20;74.90
23118;BME280;11728;50.624;6.014;2023-04-26T00:31:19;98550.72;;;4.08;75.51
23118;BME280;11728;50.624;6.014;2023-04-26T00:36:40;98548.78;;;3.80;77.77
23118;BME280;11728;50.624;6.014;2023-04-26T00:42:01;98548.84;;;3.85;78.06
23118;BME280;11728;50.624;6.014;2023-04-26T00:47:23;98543.59;;;3.85;76.50
23118;BME280;11728;50.624;6.014;2023-04-26T00:52:45;98543.44;;;3.67;77.33
23118;BME280;11728;50.624;6.014;2023-04-26T00:58:06;98555.47;;;3.47;78.12
23118;BME280;11728;50.624;6.014;2023-04-26T01:03:27;98552.78;;;3.40;78.62
23118;BME280;11728;50.624;6.014;2023-04-26T01:08:52;98555.28;;;3.26;79.01
23118;BME280;11728;50.624;6.014;2023-04-26T01:14:16;98551.56;;;3.05;79.81
23118;BME280;11728;50.624;6.014;2023-04-26T01:19:46;98559.28;;;2.96;80.42
23118;BME280;11728;50.624;6.014;2023-04-26T01:25:10;98556.59;;;2.89;80.21
23118;BME280;11728;50.624;6.014;2023-04-26T01:30:31;98548.56;;;2.71;80.98
23118;BME280;11728;50.624;6.014;2023-04-26T01:35:52;98558.03;;;2.63;81.59
23118;BME280;11728;50.624;6.014;2023-04-26T01:41:13;98554.38;;;2.49;82.39
23118;BME280;11728;50.624;6.014;2023-04-26T01:46:33;98554.31;;;2.43;82.39
23118;BME280;11728;50.624;6.014;2023-04-26T01:51:54;98546.34;;;2.32;83.02
23118;BME280;11728;50.624;6.014;2023-04-26T01:57:15;98552.28;;;2.21;83.30
23118;BME280;11728;50.624;6.014;2023-04-26T02:02:36;98554.88;;;2.21;82.68
23118;BME280;11728;50.624;6.014;2023-04-26T02:07:57;98554.00;;;2.21;81.83
23118;BME280;11728;50.624;6.014;2023-04-26T02:13:17;98557.19;;;2.03;82.56
23118;BME280;11728;50.624;6.014;2023-04-26T02:18:39;98557.97;;;1.95;83.79
23118;BME280;11728;50.624;6.014;2023-04-26T02:24:00;98551.75;;;1.87;84.35
23118;BME280;11728;50.624;6.014;2023-04-26T02:29:21;98558.66;;;1.83;84.53
23118;BME280;11728;50.624;6.014;2023-04-26T02:34:43;98550.75;;;1.77;84.51
23118;BME280;11728;50.624;6.014;2023-04-26T02:40:04;98549.75;;;1.69;84.90
23118;BME280;11728;50.624;6.014;2023-04-26T02:45:25;98553.97;;;1.61;84.75
23118;BME280;11728;50.624;6.014;2023-04-26T02:50:46;98546.16;;;1.61;84.91
23118;BME280;11728;50.624;6.014;2023-04-26T02:56:07;98539.94;;;1.52;85.13
23118;BME280;11728;50.624;6.014;2023-04-26T03:01:28;98530.28;;;1.44;85.90
23118;BME280;11728;50.624;6.014;2023-04-26T03:06:48;98523.31;;;1.43;85.48
23118;BME280;11728;50.624;6.014;2023-04-26T03:12:10;98511.06;;;1.37;85.52
23118;BME280;11728;50.624;6.014;2023-04-26T03:17:31;98508.38;;;1.31;86.08
23118;BME280;11728;50.624;6.014;2023-04-26T03:22:52;98511.00;;;1.33;86.05
23118;BME280;11728;50.624;6.014;2023-04-26T03:28:12;98514.50;;;1.35;85.47
23118;BME280;11728;50.624;6.014;2023-04-26T03:33:33;98520.66;;;1.40;84.49
23118;BME280;11728;50.624;6.014;2023-04-26T03:38:54;98508.31;;;1.28;85.53
23118;BME280;11728;50.624;6.014;2023-04-26T03:44:15;98514.25;;;1.20;85.85
23118;BME280;11728;50.624;6.014;2023-04-26T03:49:36;98509.00;;;1.17;86.05
23118;BME280;11728;50.624;6.014;2023-04-26T03:54:57;98510.59;;;1.09;86.84
23118;BME280;11728;50.624;6.014;2023-04-26T04:00:17;98522.69;;;1.07;86.57
23118;BME280;11728;50.624;6.014;2023-04-26T04:05:38;98513.16;;;1.06;87.54
23118;BME280;11728;50.624;6.014;2023-04-26T04:10:59;98509.69;;;1.07;87.39
23118;BME280;11728;50.624;6.014;2023-04-26T04:16:20;98515.78;;;1.09;87.86
23118;BME280;11728;50.624;6.014;2023-04-26T04:21:41;98514.94;;;1.10;87.71
23118;BME280;11728;50.624;6.014;2023-04-26T04:27:03;98511.44;;;1.08;88.06
23118;BME280;11728;50.624;6.014;2023-04-26T04:32:23;98527.94;;;1.10;88.50
23118;BME280;11728;50.624;6.014;2023-04-26T04:37:44;98523.75;;;1.18;88.04
23118;BME280;11728;50.624;6.014;2023-04-26T04:43:05;98529.94;;;1.26;88.38
23118;BME280;11728;50.624;6.014;2023-04-26T04:48:26;98536.19;;;1.35;87.83
23118;BME280;11728;50.624;6.014;2023-04-26T04:53:47;98543.28;;;1.45;87.00
23118;BME280;11728;50.624;6.014;2023-04-26T04:59:08;98546.22;;;1.64;86.24
23118;BME280;11728;50.624;6.014;2023-04-26T05:04:28;98548.06;;;1.71;85.95
23118;BME280;11728;50.624;6.014;2023-04-26T05:09:51;98559.34;;;1.72;85.67
23118;BME280;11728;50.624;6.014;2023-04-26T05:15:11;98562.84;;;1.72;85.65
23118;BME280;11728;50.624;6.014;2023-04-26T05:20:32;98560.25;;;1.75;86.08
23118;BME280;11728;50.624;6.014;2023-04-26T05:25:53;98552.69;;;1.90;86.06
23118;BME280;11728;50.624;6.014;2023-04-26T05:31:14;98552.97;;;2.10;86.38
23118;BME280;11728;50.624;6.014;2023-04-26T05:36:34;98558.66;;;2.45;86.18
23118;BME280;11728;50.624;6.014;2023-04-26T05:41:55;98560.53;;;3.31;83.62
23118;BME280;11728;50.624;6.014;2023-04-26T05:47:16;98554.09;;;3.91;81.62
23118;BME280;11728;50.624;6.014;2023-04-26T05:52:37;98559.69;;;4.52;79.52
23118;BME280;11728;50.624;6.014;2023-04-26T05:57:57;98560.72;;;4.90;76.91
23118;BME280;11728;50.624;6.014;2023-04-26T06:03:18;98552.94;;;5.03;76.87
23118;BME280;11728;50.624;6.014;2023-04-26T06:08:41;98549.59;;;5.89;74.30
23118;BME280;11728;50.624;6.014;2023-04-26T06:14:01;98550.34;;;6.51;72.71
23118;BME280;11728;50.624;6.014;2023-04-26T06:19:22;98553.59;;;7.09;70.78
23118;BME280;11728;50.624;6.014;2023-04-26T06:24:43;98547.13;;;7.68;69.04
23118;BME280;11728;50.624;6.014;2023-04-26T06:30:05;98561.59;;;8.20;67.66
23118;BME280;11728;50.624;6.014;2023-04-26T06:35:27;98553.31;;;9.29;65.12
23118;BME280;11728;50.624;6.014;2023-04-26T06:40:48;98561.50;;;9.09;64.53
23118;BME280;11728;50.624;6.014;2023-04-26T06:46:08;98556.84;;;8.58;65.93
23118;BME280;11728;50.624;6.014;2023-04-26T06:51:29;98555.16;;;9.21;64.31
23118;BME280;11728;50.624;6.014;2023-04-26T06:56:50;98547.94;;;9.93;62.69
23118;BME280;11728;50.624;6.014;2023-04-26T07:02:11;98547.56;;;10.65;62.05
23118;BME280;11728;50.624;6.014;2023-04-26T07:07:32;98560.38;;;10.85;61.21
23118;BME280;11728;50.624;6.014;2023-04-26T07:12:53;98565.69;;;10.82;61.72
23118;BME280;11728;50.624;6.014;2023-04-26T07:18:14;98565.34;;;10.55;61.23
23118;BME280;11728;50.624;6.014;2023-04-26T07:23:34;98568.06;;;10.51;61.17
23118;BME280;11728;50.624;6.014;2023-04-26T07:28:56;98568.78;;;10.59;60.51
23118;BME280;11728;50.624;6.014;2023-04-26T07:34:16;98563.84;;;10.41;60.43
23118;BME280;11728;50.624;6.014;2023-04-26T07:39:37;98559.06;;;10.61;60.23
23118;BME280;11728;50.624;6.014;2023-04-26T07:44:58;98552.75;;;10.69;59.36
23118;BME280;11728;50.624;6.014;2023-04-26T07:50:19;98546.19;;;10.89;58.67
23118;BME280;11728;50.624;6.014;2023-04-26T07:55:40;98530.53;;;11.21;57.77
23118;BME280;11728;50.624;6.014;2023-04-26T08:01:01;98524.59;;;11.10;57.53
23118;BME280;11728;50.624;6.014;2023-04-26T08:06:22;98525.75;;;10.97;57.57
23118;BME280;11728;50.624;6.014;2023-04-26T08:11:42;98534.84;;;11.25;57.08
23118;BME280;11728;50.624;6.014;2023-04-26T08:17:04;98539.91;;;12.44;53.98
23118;BME280;11728;50.624;6.014;2023-04-26T08:22:24;98551.78;;;13.54;51.64
23118;BME280;11728;50.624;6.014;2023-04-26T08:27:46;98540.91;;;13.34;50.96
23118;BME280;11728;50.624;6.014;2023-04-26T08:33:08;98544.47;;;13.33;49.87
23118;BME280;11728;50.624;6.014;2023-04-26T08:38:29;98551.97;;;14.04;48.44
23118;BME280;11728;50.624;6.014;2023-04-26T08:43:50;98537.09;;;15.92;45.24
23118;BME280;11728;50.624;6.014;2023-04-26T08:54:38;98531.81;;;16.55;43.36
23118;BME280;11728;50.624;6.014;2023-04-26T09:00:01;98526.53;;;17.13;41.14
23118;BME280;11728;50.624;6.014;2023-04-26T09:05:25;98515.09;;;17.86;39.21
23118;BME280;11728;50.624;6.014;2023-04-26T09:10:46;98517.47;;;18.46;37.49
23118;BME280;11728;50.624;6.014;2023-04-26T09:16:07;98522.69;;;17.00;36.75
23118;BME280;11728;50.624;6.014;2023-04-26T09:21:28;98523.81;;;16.75;37.97
23118;BME280;11728;50.624;6.014;2023-04-26T09:27:00;98525.84;;;16.70;36.67
23118;BME280;11728;50.624;6.014;2023-04-26T09:32:22;98527.69;;;16.88;37.26
23118;BME280;11728;50.624;6.014;2023-04-26T09:37:51;98511.66;;;17.07;37.45
23118;BME280;11728;50.624;6.014;2023-04-26T09:43:13;98492.13;;;17.45;36.03
23118;BME280;11728;50.624;6.014;2023-04-26T09:48:34;98497.31;;;17.48;36.20
23118;BME280;11728;50.624;6.014;2023-04-26T09:53:54;98499.75;;;18.08;35.96
23118;BME280;11728;50.624;6.014;2023-04-26T09:59:15;98503.03;;;18.82;37.88
23118;BME280;11728;50.624;6.014;2023-04-26T10:04:36;98503.66;;;20.90;34.09
23118;BME280;11728;50.624;6.014;2023-04-26T10:09:58;98490.75;;;22.34;32.43
23118;BME280;11728;50.624;6.014;2023-04-26T10:15:18;98486.34;;;23.35;31.48
23118;BME280;11728;50.624;6.014;2023-04-26T10:20:43;98483.97;;;21.47;30.48
23118;BME280;11728;50.624;6.014;2023-04-26T10:26:05;98485.88;;;21.17;31.06
23118;BME280;11728;50.624;6.014;2023-04-26T10:37:26;98479.00;;;22.61;30.10
23118;BME280;11728;50.624;6.014;2023-04-26T10:42:47;98464.66;;;23.74;28.91
23118;BME280;11728;50.624;6.014;2023-04-26T10:59:08;98465.31;;;22.52;27.91
23118;BME280;11728;50.624;6.014;2023-04-26T11:04:51;98451.25;;;22.21;27.29
23118;BME280;11728;50.624;6.014;2023-04-26T11:10:21;98447.63;;;22.22;27.22
23118;BME280;11728;50.624;6.014;2023-04-26T11:15:42;98450.81;;;21.88;28.07
23118;BME280;11728;50.624;6.014;2023-04-26T11:21:04;98426.66;;;22.65;27.33
23118;BME280;11728;50.624;6.014;2023-04-26T11:26:31;98414.53;;;23.95;27.05
23118;BME280;11728;50.624;6.014;2023-04-26T11:31:54;98418.81;;;24.68;26.71
23118;BME280;11728;50.624;6.014;2023-04-26T11:37:15;98425.94;;;24.58;25.84
23118;BME280;11728;50.624;6.014;2023-04-26T11:42:36;98415.59;;;25.08;25.28
23118;BME280;11728;50.624;6.014;2023-04-26T11:47:56;98421.50;;;24.57;25.17
23118;BME280;11728;50.624;6.014;2023-04-26T11:53:17;98427.28;;;23.32;24.96
23118;BME280;11728;50.624;6.014;2023-04-26T11:58:38;98417.53;;;23.42;25.99
23118;BME280;11728;50.624;6.014;2023-04-26T12:03:59;98417.66;;;23.16;26.16
23118;BME280;11728;50.624;6.014;2023-04-26T12:09:25;98417.84;;;23.50;26.06
23118;BME280;11728;50.624;6.014;2023-04-26T12:14:47;98405.53;;;24.30;24.83
23118;BME280;11728;50.624;6.014;2023-04-26T12:20:11;98415.06;;;24.23;25.54
23118;BME280;11728;50.624;6.014;2023-04-26T12:25:34;98404.59;;;23.96;25.16
23118;BME280;11728;50.624;6.014;2023-04-26T12:30:55;98397.47;;;24.76;25.28
23118;BME280;11728;50.624;6.014;2023-04-26T12:36:16;98389.47;;;25.41;24.98
23118;BME280;11728;50.624;6.014;2023-04-26T12:41:37;98385.44;;;25.36;25.40
23118;BME280;11728;50.624;6.014;2023-04-26T12:46:57;98395.38;;;25.79;25.19
23118;BME280;11728;50.624;6.014;2023-04-26T12:52:18;98381.19;;;25.97;24.33
23118;BME280;11728;50.624;6.014;2023-04-26T12:57:41;98392.38;;;24.94;25.34
23118;BME280;11728;50.624;6.014;2023-04-26T13:03:03;98389.28;;;24.43;26.28
23118;BME280;11728;50.624;6.014;2023-04-26T13:08:23;98395.16;;;24.01;26.30
23118;BME280;11728;50.624;6.014;2023-04-26T13:13:44;98403.63;;;22.74;26.52
23118;BME280;11728;50.624;6.014;2023-04-26T13:19:05;98398.69;;;21.76;28.52
23118;BME280;11728;50.624;6.014;2023-04-26T13:24:26;98402.03;;;22.06;27.60
23118;BME280;11728;50.624;6.014;2023-04-26T13:29:46;98392.53;;;22.27;28.75
23118;BME280;11728;50.624;6.014;2023-04-26T13:35:07;98401.16;;;22.32;27.82
23118;BME280;11728;50.624;6.014;2023-04-26T13:40:28;98393.06;;;21.67;28.19
23118;BME280;11728;50.624;6.014;2023-04-26T13:45:49;98404.13;;;19.90;30.08
23118;BME280;11728;50.624;6.014;2023-04-26T13:51:10;98404.66;;;18.38;30.77
23118;BME280;11728;50.624;6.014;2023-04-26T13:56:31;98396.66;;;17.67;31.93
23118;BME280;11728;50.624;6.014;2023-04-26T14:01:53;98399.00;;;17.56;32.03
23118;BME280;11728;50.624;6.014;2023-04-26T14:07:13;98403.34;;;17.40;31.89
23118;BME280;11728;50.624;6.014;2023-04-26T14:12:34;98405.34;;;16.98;32.29
23118;BME280;11728;50.624;6.014;2023-04-26T14:17:55;98397.28;;;17.18;32.73
23118;BME280;11728;50.624;6.014;2023-04-26T14:23:16;98389.13;;;17.58;32.33
23118;BME280;11728;50.624;6.014;2023-04-26T14:28:37;98391.31;;;17.67;32.60
23118;BME280;11728;50.624;6.014;2023-04-26T14:33:58;98398.19;;;18.42;32.04
23118;BME280;11728;50.624;6.014;2023-04-26T14:39:18;98387.22;;;18.63;31.92
23118;BME280;11728;50.624;6.014;2023-04-26T14:44:40;98378.59;;;19.38;30.77
23118;BME280;11728;50.624;6.014;2023-04-26T14:50:01;98368.63;;;19.25;31.09
23118;BME280;11728;50.624;6.014;2023-04-26T14:55:22;98372.56;;;19.50;31.25
23118;BME280;11728;50.624;6.014;2023-04-26T15:00:43;98374.69;;;19.13;30.96
23118;BME280;11728;50.624;6.014;2023-04-26T15:06:04;98374.16;;;18.25;32.79
23118;BME280;11728;50.624;6.014;2023-04-26T15:11:27;98375.81;;;17.92;34.36
23118;BME280;11728;50.624;6.014;2023-04-26T15:16:47;98370.88;;;17.66;34.12
23118;BME280;11728;50.624;6.014;2023-04-26T15:22:08;98358.38;;;17.50;34.01
23118;BME280;11728;50.624;6.014;2023-04-26T15:27:29;98365.16;;;18.26;34.98
23118;BME280;11728;50.624;6.014;2023-04-26T15:32:50;98366.06;;;18.58;36.04
23118;BME280;11728;50.624;6.014;2023-04-26T15:38:11;98365.44;;;18.20;34.63
23118;BME280;11728;50.624;6.014;2023-04-26T15:43:32;98370.19;;;17.63;34.93
23118;BME280;11728;50.624;6.014;2023-04-26T15:48:53;98373.03;;;16.86;35.62
23118;BME280;11728;50.624;6.014;2023-04-26T15:54:13;98374.28;;;16.78;35.37
23118;BME280;11728;50.624;6.014;2023-04-26T15:59:34;98379.09;;;16.90;35.89
23118;BME280;11728;50.624;6.014;2023-04-26T16:04:55;98378.06;;;16.74;37.13
23118;BME280;11728;50.624;6.014;2023-04-26T16:10:16;98392.88;;;16.61;36.44
23118;BME280;11728;50.624;6.014;2023-04-26T16:15:36;98383.31;;;16.15;36.79
23118;BME280;11728;50.624;6.014;2023-04-26T16:21:04;98386.09;;;16.34;36.53
23118;BME280;11728;50.624;6.014;2023-04-26T16:26:26;98387.81;;;15.95;37.44
23118;BME280;11728;50.624;6.014;2023-04-26T16:31:47;98384.75;;;15.19;37.66
23118;BME280;11728;50.624;6.014;2023-04-26T16:37:08;98384.34;;;15.06;38.41
23118;BME280;11728;50.624;6.014;2023-04-26T16:42:29;98382.81;;;15.01;38.75
23118;BME280;11728;50.624;6.014;2023-04-26T16:47:50;98382.44;;;14.88;39.10
23118;BME280;11728;50.624;6.014;2023-04-26T16:53:11;98382.47;;;14.64;39.13
23118;BME280;11728;50.624;6.014;2023-04-26T16:58:31;98391.78;;;14.28;40.02
23118;BME280;11728;50.624;6.014;2023-04-26T17:03:52;98381.44;;;13.95;40.44
23118;BME280;11728;50.624;6.014;2023-04-26T17:09:13;98383.25;;;13.69;40.27
23118;BME280;11728;50.624;6.014;2023-04-26T17:14:34;98384.97;;;13.44;40.34
23118;BME280;11728;50.624;6.014;2023-04-26T17:19:55;98395.66;;;13.15;41.30
23118;BME280;11728;50.624;6.014;2023-04-26T17:25:16;98396.69;;;12.81;41.78
23118;BME280;11728;50.624;6.014;2023-04-26T17:30:37;98397.78;;;12.43;42.13
23118;BME280;11728;50.624;6.014;2023-04-26T17:35:58;98401.22;;;12.17;42.92
23118;BME280;11728;50.624;6.014;2023-04-26T17:41:20;98405.78;;;12.10;42.92
23118;BME280;11728;50.624;6.014;2023-04-26T17:46:41;98418.34;;;12.04;43.18
23118;BME280;11728;50.624;6.014;2023-04-26T17:52:02;98417.72;;;11.93;43.67
23118;BME280;11728;50.624;6.014;2023-04-26T17:57:23;98421.44;;;11.86;43.91
23118;BME280;11728;50.624;6.014;2023-04-26T18:02:44;98434.00;;;11.79;44.14
23118;BME280;11728;50.624;6.014;2023-04-26T18:08:05;98435.97;;;11.70;44.51
23118;BME280;11728;50.624;6.014;2023-04-26T18:13:26;98445.41;;;11.44;44.84
23118;BME280;11728;50.624;6.014;2023-04-26T18:18:47;98450.13;;;11.31;45.07
23118;BME280;11728;50.624;6.014;2023-04-26T18:24:08;98449.41;;;11.25;45.21
23118;BME280;11728;50.624;6.014;2023-04-26T18:29:29;98448.88;;;11.09;45.22
23118;BME280;11728;50.624;6.014;2023-04-26T18:34:50;98456.22;;;10.95;45.29
23118;BME280;11728;50.624;6.014;2023-04-26T18:40:11;98462.81;;;10.76;45.43
23118;BME280;11728;50.624;6.014;2023-04-26T18:45:32;98462.41;;;10.54;46.15
23118;BME280;11728;50.624;6.014;2023-04-26T18:50:53;98475.00;;;10.40;46.30
23118;BME280;11728;50.624;6.014;2023-04-26T18:56:14;98464.72;;;10.25;46.15
23118;BME280;11728;50.624;6.014;2023-04-26T19:01:35;98465.88;;;10.12;46.56
23118;BME280;11728;50.624;6.014;2023-04-26T19:06:56;98468.66;;;10.03;46.40
23118;BME280;11728;50.624;6.014;2023-04-26T19:12:17;98470.63;;;9.89;46.40
23118;BME280;11728;50.624;6.014;2023-04-26T19:17:38;98480.59;;;9.72;46.97
23118;BME280;11728;50.624;6.014;2023-04-26T19:22:59;98492.16;;;9.62;47.32
23118;BME280;11728;50.624;6.014;2023-04-26T19:28:19;98492.28;;;9.56;47.61
23118;BME280;11728;50.624;6.014;2023-04-26T19:33:40;98492.34;;;9.52;47.85
23118;BME280;11728;50.624;6.014;2023-04-26T19:39:01;98501.06;;;9.55;48.24
23118;BME280;11728;50.624;6.014;2023-04-26T19:44:24;98509.78;;;9.60;48.24
23118;BME280;11728;50.624;6.014;2023-04-26T19:49:45;98504.69;;;9.48;48.75
23118;BME280;11728;50.624;6.014;2023-04-26T19:55:07;98509.38;;;9.31;49.19
23118;BME280;11728;50.624;6.014;2023-04-26T20:00:30;98517.41;;;9.22;49.42
23118;BME280;11728;50.624;6.014;2023-04-26T20:05:51;98521.09;;;9.10;50.42
23118;BME280;11728;50.624;6.014;2023-04-26T20:11:12;98525.56;;;9.03;50.50
23118;BME280;11728;50.624;6.014;2023-04-26T20:16:37;98528.34;;;8.90;51.45
23118;BME280;11728;50.624;6.014;2023-04-26T20:21:57;98525.84;;;8.79;52.29
23118;BME280;11728;50.624;6.014;2023-04-26T20:27:18;98527.88;;;8.56;53.47
23118;BME280;11728;50.624;6.014;2023-04-26T20:32:39;98521.16;;;8.32;54.16
23118;BME280;11728;50.624;6.014;2023-04-26T20:38:00;98532.72;;;8.11;54.72
23118;BME280;11728;50.624;6.014;2023-04-26T20:43:20;98534.59;;;7.97;55.30
23118;BME280;11728;50.624;6.014;2023-04-26T20:48:42;98545.19;;;7.88;56.08
23118;BME280;11728;50.624;6.014;2023-04-26T20:54:02;98530.41;;;7.72;57.03
23118;BME280;11728;50.624;6.014;2023-04-26T20:59:24;98527.91;;;7.58;57.20
23118;BME280;11728;50.624;6.014;2023-04-26T21:04:45;98534.97;;;7.50;57.59
23118;BME280;11728;50.624;6.014;2023-04-26T21:10:06;98545.53;;;7.44;58.14
23118;BME280;11728;50.624;6.014;2023-04-26T21:15:27;98545.56;;;7.41;58.65
23118;BME280;11728;50.624;6.014;2023-04-26T21:20:48;98551.75;;;7.31;58.89
23118;BME280;11728;50.624;6.014;2023-04-26T21:26:08;98555.22;;;7.31;59.61
23118;BME280;11728;50.624;6.014;2023-04-26T21:31:29;98559.66;;;7.25;60.16
23118;BME280;11728;50.624;6.014;2023-04-26T21:36:50;98556.16;;;7.20;60.66
23118;BME280;11728;50.624;6.014;2023-04-26T21:42:11;98549.22;;;7.16;60.75
23118;BME280;11728;50.624;6.014;2023-04-26T21:47:32;98550.94;;;7.17;61.28
23118;BME280;11728;50.624;6.014;2023-04-26T21:52:52;98547.47;;;7.12;61.53
23118;BME280;11728;50.624;6.014;2023-04-26T21:58:13;98539.63;;;7.04;61.81
23118;BME280;11728;50.624;6.014;2023-04-26T22:03:34;98541.44;;;6.95;62.36
23118;BME280;11728;50.624;6.014;2023-04-26T22:08:56;98542.34;;;6.82;62.50
23118;BME280;11728;50.624;6.014;2023-04-26T22:14:17;98549.41;;;6.68;63.39
23118;BME280;11728;50.624;6.014;2023-04-26T22:19:37;98548.56;;;6.66;62.87
23118;BME280;11728;50.624;6.014;2023-04-26T22:24:58;98546.84;;;6.56;63.40
23118;BME280;11728;50.624;6.014;2023-04-26T22:30:19;98552.97;;;6.51;64.11
23118;BME280;11728;50.624;6.014;2023-04-26T22:35:40;98554.75;;;6.44;64.49
23118;BME280;11728;50.624;6.014;2023-04-26T22:41:01;98546.00;;;6.30;64.82
23118;BME280;11728;50.624;6.014;2023-04-26T22:46:21;98546.94;;;6.19;65.63
23118;BME280;11728;50.624;6.014;2023-04-26T22:51:42;98547.81;;;6.10;65.70
23118;BME280;11728;50.624;6.014;2023-04-26T22:57:03;98565.28;;;6.03;66.10
23118;BME280;11728;50.624;6.014;2023-04-26T23:02:25;98556.56;;;5.98;66.17
23118;BME280;11728;50.624;6.014;2023-04-26T23:07:45;98557.41;;;5.94;66.42
23118;BME280;11728;50.624;6.014;2023-04-26T23:13:06;98556.56;;;5.93;66.59
23118;BME280;11728;50.624;6.014;2023-04-26T23:18:27;98556.56;;;5.77;67.19
23118;BME280;11728;50.624;6.014;2023-04-26T23:23:48;98552.16;;;5.68;67.55
23118;BME280;11728;50.624;6.014;2023-04-26T23:29:08;98556.53;;;5.59;68.00
23118;BME280;11728;50.624;6.014;2023-04-26T23:34:29;98567.00;;;5.41;68.88
23118;BME280;11728;50.624;6.014;2023-04-26T23:39:50;98574.81;;;5.33;69.11
23118;BME280;11728;50.624;6.014;2023-04-26T23:45:11;98594.03;;;5.34;68.90
23118;BME280;11728;50.624;6.014;2023-04-26T23:50:32;98594.91;;;5.39;68.56
23118;BME280;11728;50.624;6.014;2023-04-26T23:55:53;98596.66;;;5.40;68.42
